createdAt,value
2022-10-13T00:01:15.491Z,10.60
2022-10-13T00:03:46.087Z,10.70
2022-10-13T00:06:14.701Z,10.27
2022-10-13T00:08:42.958Z,11.57
2022-10-13T00:11:11.915Z,11.40
2022-10-13T00:13:41.360Z,11.13
2022-10-13T00:16:10.232Z,11.30
2022-10-13T00:18:38.804Z,11.73
2022-10-13T00:21:09.026Z,11.47
2022-10-13T00:23:37.126Z,11.97
2022-10-13T00:26:05.840Z,11.33
2022-10-13T00:28:34.273Z,12.23
2022-10-13T00:31:03.907Z,11.90
2022-10-13T00:33:32.035Z,12.80
2022-10-13T00:36:00.121Z,12.13
2022-10-13T00:38:28.267Z,12.83
2022-10-13T00:40:57.740Z,12.60
2022-10-13T00:43:27.308Z,12.03
2022-10-13T00:45:55.676Z,12.77
2022-10-13T00:48:26.592Z,12.80
2022-10-13T00:50:54.813Z,12.57
2022-10-13T00:53:24.781Z,13.07
2022-10-13T00:55:53.309Z,12.23
2022-10-13T00:58:23.693Z,12.00
2022-10-13T01:00:52.729Z,11.97
2022-10-13T01:03:21.491Z,12.10
2022-10-13T01:05:51.766Z,12.27
2022-10-13T01:08:20.732Z,12.70
2022-10-13T01:10:55.005Z,13.07
2022-10-13T01:13:25.360Z,12.57
2022-10-13T01:15:56.360Z,12.67
2022-10-13T01:18:28.337Z,13.07
2022-10-13T01:21:10.507Z,12.97
2022-10-13T01:23:53.473Z,13.37
2022-10-13T01:26:39.289Z,13.67
2022-10-13T01:29:17.020Z,13.57
2022-10-13T01:31:49.600Z,14.17
2022-10-13T01:34:20.717Z,13.40
2022-10-13T01:36:53.245Z,13.97
2022-10-13T01:39:24.665Z,12.80
2022-10-13T01:41:53.691Z,13.47
2022-10-13T01:44:24.624Z,13.77
2022-10-13T01:46:55.032Z,14.17
2022-10-13T01:49:25.492Z,13.23
2022-10-13T01:51:55.836Z,14.30
2022-10-13T01:54:24.043Z,14.20
2022-10-13T01:56:55.230Z,14.13
2022-10-13T01:59:24.635Z,14.53
2022-10-13T02:01:58.598Z,14.37
2022-10-13T02:04:30.874Z,14.63
2022-10-13T02:07:01.688Z,14.83
2022-10-13T02:09:33.574Z,14.93
2022-10-13T02:12:07.327Z,15.03
2022-10-13T02:14:36.175Z,14.60
2022-10-13T02:17:06.660Z,14.50
2022-10-13T02:19:36.340Z,15.57
2022-10-13T02:22:05.019Z,14.30
2022-10-13T02:24:33.949Z,14.90
2022-10-13T02:27:02.334Z,15.40
2022-10-13T02:29:30.467Z,14.87
2022-10-13T02:31:58.595Z,15.10
2022-10-13T02:34:28.235Z,15.77
2022-10-13T02:36:56.348Z,16.97
2022-10-13T02:39:24.468Z,17.03
2022-10-13T02:41:52.631Z,16.37
2022-10-13T02:44:20.996Z,16.90
2022-10-13T02:46:49.153Z,15.73
2022-10-13T02:49:17.299Z,16.27
2022-10-13T02:51:46.759Z,15.93
2022-10-13T02:54:14.848Z,15.57
2022-10-13T02:56:43.008Z,15.23
2022-10-13T02:59:12.031Z,15.13
2022-10-13T03:01:41.473Z,15.53
2022-10-13T03:04:09.911Z,15.03
2022-10-13T03:06:38.068Z,15.37
2022-10-13T03:09:07.596Z,15.77
2022-10-13T03:11:35.724Z,15.20
2022-10-13T03:14:03.913Z,15.27
2022-10-13T03:16:32.007Z,15.10
2022-10-13T03:19:00.131Z,14.53
2022-10-13T03:21:28.231Z,15.80
2022-10-13T03:23:56.331Z,14.67
2022-10-13T03:26:25.817Z,15.87
2022-10-13T03:28:53.969Z,15.67
2022-10-13T03:31:22.124Z,15.87
2022-10-13T03:33:50.247Z,15.33
2022-10-13T03:36:18.333Z,15.37
2022-10-13T03:38:46.771Z,15.60
2022-10-13T03:41:15.687Z,15.43
2022-10-13T03:43:45.885Z,15.97
2022-10-13T03:46:15.742Z,15.93
2022-10-13T03:48:43.875Z,15.27
2022-10-13T03:51:17.912Z,15.90
2022-10-13T03:53:46.172Z,15.97
2022-10-13T03:56:16.071Z,16.03
2022-10-13T03:58:45.580Z,15.80
2022-10-13T04:01:14.729Z,16.00
2022-10-13T04:03:42.874Z,15.57
2022-10-13T04:06:11.422Z,15.73
2022-10-13T04:08:39.531Z,14.67
2022-10-13T04:11:08.737Z,16.00
2022-10-13T04:13:36.914Z,15.17
2022-10-13T04:16:07.098Z,15.73
2022-10-13T04:18:35.210Z,16.13
2022-10-13T04:21:03.369Z,15.43
2022-10-13T04:23:31.499Z,15.20
2022-10-13T04:25:59.619Z,15.17
2022-10-13T04:28:27.776Z,16.20
2022-10-13T04:30:55.889Z,14.77
2022-10-13T04:33:25.320Z,15.57
2022-10-13T04:35:53.440Z,14.93
2022-10-13T04:38:21.558Z,15.23
2022-10-13T04:40:50.346Z,15.67
2022-10-13T04:43:18.464Z,16.13
2022-10-13T04:45:46.578Z,15.60
2022-10-13T04:48:14.734Z,16.03
2022-10-13T04:50:44.174Z,15.67
2022-10-13T04:53:15.420Z,15.93
2022-10-13T04:55:47.069Z,16.50
2022-10-13T04:58:15.175Z,15.93
2022-10-13T05:00:47.167Z,16.57
2022-10-13T05:03:15.367Z,16.27
2022-10-13T05:05:44.838Z,17.23
2022-10-13T05:08:13.047Z,16.23
2022-10-13T05:10:41.186Z,15.83
2022-10-13T05:13:09.312Z,15.50
2022-10-13T05:15:40.249Z,14.93
2022-10-13T05:18:08.391Z,15.00
2022-10-13T05:20:36.486Z,14.73
2022-10-13T05:23:05.951Z,14.70
2022-10-13T05:25:35.693Z,15.57
2022-10-13T05:28:03.776Z,15.13
2022-10-13T05:30:32.252Z,16.17
2022-10-13T05:33:00.374Z,15.50
2022-10-13T05:35:28.635Z,14.90
2022-10-13T05:37:56.766Z,15.47
2022-10-13T05:40:26.228Z,15.37
2022-10-13T05:42:55.495Z,15.40
2022-10-13T05:45:23.644Z,14.67
2022-10-13T05:47:51.721Z,14.83
2022-10-13T05:50:19.850Z,15.97
2022-10-13T05:52:48.063Z,15.30
2022-10-13T05:55:17.592Z,16.30
2022-10-13T05:57:49.498Z,15.47
2022-10-13T06:00:18.559Z,15.33
2022-10-13T06:02:48.648Z,16.07
2022-10-13T06:05:18.331Z,15.90
2022-10-13T06:07:47.012Z,16.10
2022-10-13T06:10:15.396Z,15.53
2022-10-13T06:12:43.529Z,16.10
2022-10-13T06:15:13.284Z,15.47
2022-10-13T06:17:41.670Z,15.70
2022-10-13T06:20:10.548Z,17.10
2022-10-13T06:22:40.324Z,16.87
2022-10-13T06:25:09.363Z,17.60
2022-10-13T06:27:37.484Z,17.60
2022-10-13T06:30:05.731Z,17.27
2022-10-13T06:32:35.307Z,18.40
2022-10-13T06:35:03.947Z,18.37
2022-10-13T06:37:32.008Z,17.97
2022-10-13T06:40:00.106Z,18.10
2022-10-13T06:42:30.904Z,17.67
2022-10-13T06:44:58.979Z,16.10
2022-10-13T06:47:27.217Z,15.37
2022-10-13T06:49:56.714Z,15.77
2022-10-13T06:52:24.800Z,15.57
2022-10-13T06:54:52.945Z,15.73
2022-10-13T06:57:21.097Z,15.03
2022-10-13T06:59:49.217Z,15.70
2022-10-13T07:02:17.544Z,15.07
2022-10-13T07:04:45.895Z,14.33
2022-10-13T07:07:16.068Z,14.00
2022-10-13T07:09:44.313Z,15.03
2022-10-13T07:12:12.439Z,14.33
2022-10-13T07:14:43.679Z,13.83
2022-10-13T07:17:12.324Z,14.63
2022-10-13T07:19:40.583Z,14.07
2022-10-13T07:22:08.696Z,14.10
2022-10-13T07:24:38.124Z,13.83
2022-10-13T07:27:07.895Z,13.50
2022-10-13T07:29:36.314Z,12.87
2022-10-13T07:32:04.396Z,13.07
2022-10-13T07:34:32.517Z,13.13
2022-10-13T07:37:00.639Z,12.90
2022-10-13T07:39:28.840Z,12.43
2022-10-13T07:41:58.298Z,12.50
2022-10-13T07:44:26.546Z,13.13
2022-10-13T07:46:54.710Z,12.87
2022-10-13T07:49:22.857Z,12.43
2022-10-13T07:51:50.927Z,12.27
2022-10-13T07:54:22.553Z,11.90
2022-10-13T07:56:53.410Z,12.10
2022-10-13T07:59:23.020Z,11.97
2022-10-13T08:01:51.230Z,11.10
2022-10-13T08:04:19.383Z,12.07
2022-10-13T08:06:48.503Z,11.73
2022-10-13T08:09:16.605Z,11.57
2022-10-13T08:11:44.721Z,12.40
2022-10-13T08:14:14.128Z,11.07
2022-10-13T08:16:48.596Z,11.30
2022-10-13T08:19:21.899Z,11.27
2022-10-13T08:21:58.059Z,11.20
2022-10-13T08:24:27.449Z,11.93
2022-10-13T08:26:55.585Z,11.73
2022-10-13T08:29:24.429Z,12.40
2022-10-13T08:31:55.125Z,11.60
2022-10-13T08:34:23.679Z,10.40
2022-10-13T08:36:53.393Z,11.00
2022-10-13T08:39:21.874Z,11.40
2022-10-13T08:41:50.099Z,11.33
2022-10-13T08:45:05.846Z,11.13
2022-10-13T08:47:14.563Z,11.07
2022-10-13T08:49:43.616Z,11.13
2022-10-13T08:52:15.023Z,10.80
2022-10-13T08:54:43.128Z,10.97
2022-10-13T08:57:11.883Z,10.90
2022-10-13T08:59:40.027Z,11.53
2022-10-13T09:02:13.839Z,12.30
2022-10-13T09:04:42.670Z,13.10
2022-10-13T09:07:13.525Z,13.67
2022-10-13T09:09:41.684Z,15.03
2022-10-13T09:12:11.906Z,14.40
2022-10-13T09:14:41.479Z,15.07
2022-10-13T09:17:17.762Z,15.27
2022-10-13T09:19:46.344Z,16.17
2022-10-13T09:22:22.130Z,16.23
2022-10-13T09:25:03.344Z,17.63
2022-10-13T09:27:42.973Z,17.33
2022-10-13T09:30:26.419Z,16.70
2022-10-13T09:33:01.467Z,18.03
2022-10-13T09:35:29.587Z,18.93
2022-10-13T09:38:04.583Z,18.50
2022-10-13T09:40:32.997Z,18.03
2022-10-13T09:43:02.345Z,18.90
2022-10-13T09:45:31.135Z,17.87
2022-10-13T09:48:02.183Z,18.03
2022-10-13T09:50:31.866Z,18.17
2022-10-13T09:53:11.624Z,17.83
2022-10-13T09:55:39.750Z,18.23
2022-10-13T09:58:09.348Z,18.07
2022-10-13T10:00:38.293Z,18.03
2022-10-13T10:03:12.167Z,16.60
2022-10-13T10:05:43.699Z,16.90
2022-10-13T10:08:15.556Z,16.77
2022-10-13T10:10:44.119Z,17.70
2022-10-13T10:13:13.027Z,18.00
2022-10-13T10:15:46.681Z,16.97
2022-10-13T10:18:18.803Z,15.30
2022-10-13T10:20:56.068Z,16.60
2022-10-13T10:23:31.015Z,15.77
2022-10-13T10:26:00.619Z,15.77
2022-10-13T10:28:37.018Z,15.53
2022-10-13T10:31:08.202Z,15.93
2022-10-13T10:33:44.558Z,14.93
2022-10-13T10:36:16.925Z,15.50
2022-10-13T10:38:46.488Z,16.53
2022-10-13T10:41:18.120Z,16.07
2022-10-13T10:43:53.317Z,17.17
2022-10-13T10:46:23.004Z,16.97
2022-10-13T10:48:54.771Z,17.13
2022-10-13T10:51:24.690Z,17.37
2022-10-13T10:53:59.752Z,16.53
2022-10-13T10:56:31.469Z,17.93
2022-10-13T10:59:04.567Z,21.90
2022-10-13T11:01:35.553Z,23.43
2022-10-13T11:04:16.718Z,23.90
2022-10-13T11:06:45.093Z,25.77
2022-10-13T11:09:13.535Z,27.87
2022-10-13T11:11:42.384Z,25.93
2022-10-13T11:14:24.191Z,25.33
2022-10-13T11:17:19.530Z,25.73
2022-10-13T11:19:49.967Z,21.33
2022-10-13T11:22:20.035Z,16.50
2022-10-13T11:24:49.895Z,16.53
2022-10-13T11:27:25.085Z,14.67
2022-10-13T11:29:54.918Z,14.03
2022-10-13T11:32:55.008Z,13.47
2022-10-13T11:35:26.282Z,13.07
2022-10-13T11:38:12.683Z,13.63
2022-10-13T11:40:47.778Z,13.50
2022-10-13T11:43:33.284Z,14.73
2022-10-13T11:46:07.042Z,13.83
2022-10-13T11:48:43.371Z,14.37
2022-10-13T11:51:23.048Z,14.27
2022-10-13T11:53:55.361Z,14.97
2022-10-13T11:56:24.523Z,14.53
2022-10-13T11:58:52.652Z,15.40
2022-10-13T12:01:20.771Z,14.90
2022-10-13T12:03:49.286Z,15.73
2022-10-13T12:06:33.081Z,16.13
2022-10-13T12:09:03.438Z,15.83
2022-10-13T12:11:33.424Z,17.17
2022-10-13T12:14:02.655Z,16.13
2022-10-13T12:16:30.975Z,16.40
2022-10-13T12:19:08.276Z,16.13
2022-10-13T12:21:49.671Z,15.67
2022-10-13T12:24:17.801Z,16.83
2022-10-13T12:26:45.914Z,16.73
2022-10-13T12:29:15.162Z,16.03
2022-10-13T12:31:44.296Z,17.40
2022-10-13T12:34:20.928Z,17.20
2022-10-13T12:36:54.155Z,17.17
2022-10-13T12:39:22.426Z,17.03
2022-10-13T12:41:50.569Z,18.33
2022-10-13T12:44:19.895Z,16.83
2022-10-13T12:46:52.108Z,17.07
2022-10-13T12:49:22.601Z,17.13
2022-10-13T12:51:53.078Z,17.23
2022-10-13T12:54:23.385Z,16.53
2022-10-13T12:56:55.421Z,16.30
2022-10-13T12:59:25.195Z,16.30
2022-10-13T13:01:58.070Z,6.37
2022-10-13T13:04:31.139Z,5.00
2022-10-13T13:07:01.333Z,4.47
2022-10-13T13:09:30.482Z,3.50
2022-10-13T13:12:20.153Z,3.43
2022-10-13T13:14:49.396Z,3.20
2022-10-13T13:17:45.259Z,3.00
2022-10-13T13:20:21.448Z,1.77
2022-10-13T13:22:51.746Z,2.33
2022-10-13T13:25:20.043Z,1.40
2022-10-13T13:27:48.172Z,1.30
2022-10-13T13:30:17.303Z,1.40
2022-10-13T13:32:45.403Z,1.40
2022-10-13T13:35:13.551Z,1.40
2022-10-13T13:37:43.160Z,1.00
2022-10-13T13:40:16.679Z,1.20
2022-10-13T13:42:44.790Z,1.10
2022-10-13T13:45:14.309Z,1.20
2022-10-13T13:47:42.396Z,1.57
2022-10-13T13:50:15.858Z,1.23
2022-10-13T13:52:43.981Z,1.40
2022-10-13T13:55:13.475Z,1.33
2022-10-13T13:57:41.631Z,1.20
2022-10-13T14:00:10.244Z,1.30
2022-10-13T14:02:38.391Z,1.30
2022-10-13T14:05:07.456Z,1.27
2022-10-13T14:07:35.598Z,1.20
2022-10-13T14:10:03.726Z,1.40
2022-10-13T14:12:33.208Z,1.40
2022-10-13T14:15:01.376Z,1.30
2022-10-13T14:17:29.744Z,1.50
2022-10-13T14:19:58.102Z,1.57
2022-10-13T14:22:26.834Z,1.50
2022-10-13T14:24:55.099Z,1.53
2022-10-13T14:27:23.252Z,1.40
2022-10-13T14:29:52.720Z,1.50
2022-10-13T14:32:21.224Z,1.60
2022-10-13T14:34:49.605Z,1.43
2022-10-13T14:37:22.155Z,1.30
2022-10-13T14:39:51.228Z,1.83
2022-10-13T14:42:19.327Z,1.77
2022-10-13T14:44:47.398Z,1.57
2022-10-13T14:47:16.852Z,1.50
2022-10-13T14:49:44.975Z,1.40
2022-10-13T14:52:13.112Z,1.30
2022-10-13T14:54:44.690Z,1.40
2022-10-13T14:57:15.773Z,1.27
2022-10-13T14:59:44.150Z,1.17
2022-10-13T15:02:12.988Z,1.33
2022-10-13T15:04:42.461Z,1.20
2022-10-13T15:07:10.618Z,1.23
2022-10-13T15:09:52.324Z,1.10
2022-10-13T15:12:21.947Z,1.03
2022-10-13T15:14:50.291Z,1.10
2022-10-13T15:17:18.466Z,1.13
2022-10-13T15:19:47.942Z,1.10
2022-10-13T15:22:16.402Z,0.97
2022-10-13T15:24:45.757Z,1.10
2022-10-13T15:27:13.861Z,1.03
2022-10-13T15:29:41.986Z,1.10
2022-10-13T15:32:10.723Z,1.10
2022-10-13T15:34:39.790Z,1.20
2022-10-13T15:37:09.788Z,1.20
2022-10-13T15:39:37.955Z,1.40
2022-10-13T15:42:06.334Z,1.10
2022-10-13T15:44:51.297Z,1.40
2022-10-13T15:47:22.624Z,1.10
2022-10-13T15:49:50.724Z,1.20
2022-10-13T15:52:20.584Z,1.20
2022-10-13T15:54:51.246Z,1.60
2022-10-13T15:57:19.399Z,1.30
2022-10-13T15:59:47.487Z,1.37
2022-10-13T16:02:15.627Z,1.37
2022-10-13T16:04:43.720Z,1.40
2022-10-13T16:07:11.867Z,1.60
2022-10-13T16:09:41.312Z,1.70
2022-10-13T16:12:09.455Z,2.17
2022-10-13T16:14:37.591Z,2.30
2022-10-13T16:17:06.087Z,2.20
2022-10-13T16:19:34.231Z,2.10
2022-10-13T16:22:02.347Z,1.67
2022-10-13T16:24:30.466Z,1.80
2022-10-13T16:26:59.885Z,2.80
2022-10-13T16:29:28.051Z,2.20
2022-10-13T16:31:56.170Z,2.80
2022-10-13T16:34:24.397Z,2.10
2022-10-13T16:36:52.488Z,2.27
2022-10-13T16:39:20.697Z,2.73
2022-10-13T16:41:48.809Z,2.20
2022-10-13T16:44:18.353Z,2.30
2022-10-13T16:46:49.139Z,2.33
2022-10-13T16:49:17.598Z,2.40
2022-10-13T16:51:45.736Z,2.80
2022-10-13T16:54:13.866Z,2.90
2022-10-13T16:56:41.963Z,2.93
2022-10-13T16:59:10.054Z,2.53
2022-10-13T17:01:40.267Z,2.50
2022-10-13T17:04:08.384Z,2.60
2022-10-13T17:06:38.552Z,2.73
2022-10-13T17:09:06.797Z,2.77
2022-10-13T17:11:35.640Z,2.60
2022-10-13T17:14:03.783Z,2.53
2022-10-13T17:16:32.335Z,2.70
2022-10-13T17:19:01.758Z,2.87
2022-10-13T17:21:29.564Z,2.50
2022-10-13T17:23:58.200Z,2.60
2022-10-13T17:26:26.014Z,2.70
2022-10-13T17:28:54.749Z,2.30
2022-10-13T17:31:24.014Z,2.70
2022-10-13T17:33:52.084Z,2.43
2022-10-13T17:36:24.035Z,2.67
2022-10-13T17:38:53.076Z,3.10
2022-10-13T17:41:21.223Z,3.00
2022-10-13T17:43:49.764Z,3.43
2022-10-13T17:49:07.752Z,4.07
2022-10-13T17:51:36.928Z,4.40
2022-10-13T17:54:05.480Z,4.23
2022-10-13T17:56:33.558Z,5.20
2022-10-13T17:59:02.221Z,4.87
2022-10-13T18:01:32.487Z,4.47
2022-10-13T18:04:01.885Z,5.00
2022-10-13T18:06:36.722Z,5.10
2022-10-13T18:09:08.882Z,5.13
2022-10-13T18:11:37.951Z,5.13
2022-10-13T18:14:06.268Z,5.47
2022-10-13T18:16:34.331Z,6.00
2022-10-13T18:19:02.209Z,5.73
2022-10-13T18:21:30.076Z,5.63
2022-10-13T18:23:59.751Z,5.93
2022-10-13T18:26:31.731Z,5.33
2022-10-13T18:28:59.610Z,5.97
2022-10-13T18:31:29.286Z,6.70
2022-10-13T18:33:58.680Z,5.90
2022-10-13T18:36:28.323Z,6.17
2022-10-13T18:39:06.351Z,6.77
2022-10-13T18:41:38.372Z,6.27
2022-10-13T18:44:06.804Z,6.27
2022-10-13T18:46:35.630Z,6.90
2022-10-13T18:49:03.891Z,6.50
2022-10-13T18:51:36.119Z,6.93
2022-10-13T18:54:05.384Z,7.60
2022-10-13T18:56:37.075Z,7.97
2022-10-13T18:59:06.700Z,7.27
2022-10-13T19:01:36.404Z,6.67
2022-10-13T19:04:05.000Z,6.70
2022-10-13T19:06:32.846Z,6.50
2022-10-13T19:09:02.048Z,6.97
2022-10-13T19:11:30.783Z,7.03
2022-10-13T19:14:01.463Z,7.17
2022-10-13T19:16:32.059Z,6.60
2022-10-13T19:18:59.914Z,6.63
2022-10-13T19:21:28.081Z,6.67
2022-10-13T19:23:59.062Z,7.00
2022-10-13T19:26:29.733Z,6.77
2022-10-13T19:29:01.478Z,7.30
2022-10-13T19:31:32.168Z,7.40
2022-10-13T19:34:00.689Z,6.97
2022-10-13T19:36:31.621Z,7.30
2022-10-13T19:38:59.860Z,7.30
2022-10-13T19:41:29.374Z,6.77
2022-10-13T19:43:57.135Z,6.93
2022-10-13T19:46:26.217Z,6.63
2022-10-13T19:48:53.998Z,7.60
2022-10-13T19:51:21.739Z,7.23
2022-10-13T19:53:49.578Z,7.73
2022-10-13T19:56:22.625Z,7.00
2022-10-13T19:58:50.587Z,7.83
2022-10-13T20:01:19.807Z,6.80
2022-10-13T20:03:49.105Z,7.17
2022-10-13T20:06:17.547Z,7.20
2022-10-13T20:08:45.900Z,7.13
2022-10-13T20:11:19.432Z,6.90
2022-10-13T20:13:51.065Z,6.77
2022-10-13T20:16:21.374Z,7.10
2022-10-13T20:18:54.615Z,6.70
2022-10-13T20:21:22.986Z,6.70
2022-10-13T20:23:51.232Z,6.57
2022-10-13T20:26:19.821Z,6.97
2022-10-13T20:28:49.265Z,6.37
2022-10-13T20:31:19.064Z,7.10
2022-10-13T20:33:49.264Z,7.13
2022-10-13T20:36:19.256Z,7.47
2022-10-13T20:38:48.708Z,7.00
2022-10-13T20:41:18.492Z,7.63
2022-10-13T20:43:46.502Z,7.60
2022-10-13T20:46:14.785Z,7.43
2022-10-13T20:51:32.995Z,7.17
2022-10-13T20:54:00.765Z,7.50
2022-10-13T20:56:28.547Z,7.67
2022-10-13T20:58:56.677Z,8.47
2022-10-13T21:01:24.687Z,8.60
2022-10-13T21:03:53.098Z,8.37
2022-10-13T21:06:21.516Z,8.57
2022-10-13T21:08:50.727Z,8.83
2022-10-13T21:11:20.747Z,9.20
2022-10-13T21:13:49.734Z,9.83
2022-10-13T21:16:19.919Z,9.30
2022-10-13T21:18:49.268Z,9.30
2022-10-13T21:21:18.720Z,9.00
2022-10-13T21:23:46.520Z,8.63
2022-10-13T21:26:21.134Z,8.87
2022-10-13T21:28:50.363Z,9.27
2022-10-13T21:31:19.416Z,9.30
2022-10-13T21:33:47.203Z,9.50
2022-10-13T21:36:16.655Z,9.57
2022-10-13T21:38:45.553Z,9.70
2022-10-13T21:41:15.644Z,9.50
2022-10-13T21:43:43.649Z,9.50
2022-10-13T21:46:12.197Z,9.23
2022-10-13T21:48:40.010Z,9.30
2022-10-13T21:51:15.431Z,9.77
2022-10-13T21:53:43.618Z,10.03
2022-10-13T21:56:12.539Z,9.50
2022-10-13T21:58:41.682Z,10.10
2022-10-13T22:01:09.588Z,10.83
2022-10-13T22:03:37.707Z,11.33
2022-10-13T22:06:07.775Z,12.07
2022-10-13T22:08:39.451Z,10.83
2022-10-13T22:11:08.743Z,11.37
2022-10-13T22:13:36.748Z,10.27
2022-10-13T22:16:08.052Z,10.77
2022-10-13T22:18:35.860Z,10.90
2022-10-13T22:21:04.971Z,11.97
2022-10-13T22:23:33.184Z,11.77
2022-10-13T22:26:01.153Z,12.40
2022-10-13T22:28:32.322Z,11.47
2022-10-13T22:31:06.193Z,13.47
2022-10-13T22:33:35.984Z,13.53
2022-10-13T22:36:07.933Z,14.50
2022-10-13T22:38:35.849Z,14.17
2022-10-13T22:41:03.956Z,14.77
2022-10-13T22:43:31.816Z,14.93
2022-10-13T22:46:00.493Z,16.07
2022-10-13T22:48:29.720Z,17.37
2022-10-13T22:50:57.587Z,16.60
2022-10-13T22:53:25.398Z,16.63
2022-10-13T22:55:53.109Z,17.73
2022-10-13T22:58:20.863Z,17.70
2022-10-13T23:00:48.643Z,18.03
2022-10-13T23:03:16.490Z,17.07
2022-10-13T23:05:48.339Z,17.50
2022-10-13T23:08:16.507Z,17.40
2022-10-13T23:10:44.276Z,18.73
2022-10-13T23:13:12.033Z,18.33
2022-10-13T23:15:40.207Z,18.83
2022-10-13T23:18:07.982Z,17.93
2022-10-13T23:20:35.877Z,16.77
2022-10-13T23:23:05.152Z,17.37
2022-10-13T23:25:34.988Z,18.33
2022-10-13T23:28:02.862Z,17.90
2022-10-13T23:30:30.628Z,18.80
2022-10-13T23:32:58.378Z,17.63
2022-10-13T23:35:26.463Z,17.60
2022-10-13T23:37:54.364Z,19.73
2022-10-13T23:40:23.477Z,19.07
2022-10-13T23:42:51.200Z,19.03
2022-10-13T23:45:19.122Z,19.20
2022-10-13T23:47:46.879Z,18.90
2022-10-13T23:50:14.603Z,19.10
2022-10-13T23:52:42.340Z,19.53
2022-10-13T23:55:10.461Z,20.93
2022-10-13T23:57:39.523Z,18.87
